Time;durP1;ratioP1;P1;durP2;ratioP2;P2;SDS_P1;SDS_P2;PMS_P1;PMS_P2;Temp;Humidity;BMP_temperature;BMP_pressure;BME280_temperature;BME280_humidity;BME280_pressure;Samples;Min_cycle;Max_cycle;Signal;HPM_P1;HPM_P2
2021/04/21 00:01:21;;;;;;;11.95;5.70;;;;;;;6.28;67.26;101765.69;4996473;28;20041;-79
2021/04/21 00:03:48;;;;;;;10.10;5.38;;;;;;;6.18;68.28;101765.28;4999248;28;20034;-80
2021/04/21 00:06:15;;;;;;;10.52;6.00;;;;;;;6.16;68.07;101767.09;4988091;28;20044;-79
2021/04/21 00:08:41;;;;;;;8.77;5.60;;;;;;;6.07;68.48;101757.97;4993632;28;20072;-79
2021/04/21 00:11:08;;;;;;;8.90;5.28;;;;;;;6.13;68.60;101764.66;4984167;28;20373;-79
2021/04/21 00:13:34;;;;;;;14.05;5.88;;;;;;;6.12;68.03;101769.91;4999321;28;20046;-79
2021/04/21 00:15:59;;;;;;;9.88;5.53;;;;;;;6.03;68.26;101761.63;4999497;28;20054;-79
2021/04/21 00:18:28;;;;;;;8.02;5.50;;;;;;;5.93;68.39;101757.78;4968790;28;20068;-79
2021/04/21 00:20:58;;;;;;;13.82;6.20;;;;;;;5.95;69.37;101761.13;5002002;28;20041;-79
2021/04/21 00:23:25;;;;;;;12.52;5.68;;;;;;;6.02;69.85;101762.53;5000971;28;20068;-79
2021/04/21 00:25:52;;;;;;;8.77;5.22;;;;;;;6.10;69.96;101769.94;4997574;28;20042;-80
2021/04/21 00:28:20;;;;;;;9.68;5.68;;;;;;;5.96;69.66;101759.38;5001744;28;20065;-79
2021/04/21 00:30:46;;;;;;;8.82;5.53;;;;;;;5.80;70.13;101741.06;5001563;28;20111;-80
2021/04/21 00:33:16;;;;;;;13.20;5.75;;;;;;;5.77;70.13;101743.78;4984702;28;20768;-79
2021/04/21 00:35:43;;;;;;;11.40;6.25;;;;;;;5.81;70.50;101760.84;4999566;28;20142;-79
2021/04/21 00:38:18;;;;;;;8.90;5.95;;;;;;;5.70;70.27;101747.53;4983458;28;20136;-79
2021/04/21 00:40:44;;;;;;;9.35;5.53;;;;;;;5.76;70.43;101760.22;5000505;28;20042;-80
2021/04/21 00:43:34;;;;;;;10.25;5.72;;;;;;;5.72;70.58;101759.47;4999820;28;20087;-80
2021/04/21 00:46:28;;;;;;;9.50;5.70;;;;;;;5.69;70.81;101763.94;4992162;28;20049;-80
2021/04/21 00:49:13;;;;;;;12.30;5.63;;;;;;;5.52;70.78;101737.97;5001209;28;20053;-81
2021/04/21 00:52:05;;;;;;;7.78;5.32;;;;;;;5.64;71.10;101765.88;4995085;28;20440;-80
2021/04/21 00:54:41;;;;;;;11.73;5.40;;;;;;;5.54;70.95;101755.09;4998685;28;20041;-80
2021/04/21 00:57:22;;;;;;;8.25;5.32;;;;;;;5.70;71.18;101765.63;4995448;28;20041;-80
2021/04/21 00:59:56;;;;;;;14.52;6.20;;;;;;;5.56;71.44;101747.28;4996501;28;20065;-80
2021/04/21 01:02:26;;;;;;;8.80;6.18;;;;;;;5.63;70.49;101759.03;4981749;28;20089;-79
2021/04/21 01:04:53;;;;;;;8.40;5.63;;;;;;;5.64;71.18;101758.97;4997605;28;20029;-79
2021/04/21 01:07:21;;;;;;;12.90;6.10;;;;;;;5.64;71.27;101758.97;5001206;28;20038;-79
2021/04/21 01:09:51;;;;;;;9.02;6.20;;;;;;;5.57;71.68;101743.81;4997100;28;20034;-79
2021/04/21 01:12:19;;;;;;;7.53;5.30;;;;;;;5.50;71.61;101742.38;5003315;28;20765;-79
2021/04/21 01:14:51;;;;;;;8.85;5.97;;;;;;;5.49;71.63;101749.28;4995591;28;20042;-79
2021/04/21 01:17:18;;;;;;;9.32;5.90;;;;;;;5.47;72.05;101758.84;4997207;28;20034;-79
2021/04/21 01:20:05;;;;;;;8.85;6.07;;;;;;;5.49;71.84;101759.63;5002053;28;20369;-79
2021/04/21 01:22:42;;;;;;;9.43;5.70;;;;;;;5.49;72.04;101758.78;4994677;28;20126;-79
2021/04/21 01:25:15;;;;;;;10.82;5.90;;;;;;;5.37;72.15;101753.19;5009439;28;20129;-79
2021/04/21 01:27:49;;;;;;;10.32;6.20;;;;;;;5.42;72.70;101755.63;4978076;28;20610;-79
2021/04/21 01:30:19;;;;;;;9.32;6.22;;;;;;;5.38;72.30;101756.63;4993260;28;20572;-80
2021/04/21 01:32:49;;;;;;;8.52;6.30;;;;;;;5.36;72.86;101758.44;5003621;28;20038;-79
2021/04/21 01:35:18;;;;;;;10.60;6.50;;;;;;;5.24;72.84;101752.06;4999068;28;20449;-80
2021/04/21 01:37:46;;;;;;;12.30;6.30;;;;;;;5.15;72.49;101734.34;4990097;28;20034;-80
2021/04/21 01:40:17;;;;;;;9.07;6.50;;;;;;;5.22;73.04;101751.28;5016747;28;20044;-80
2021/04/21 01:42:46;;;;;;;9.88;6.45;;;;;;;5.18;73.06;101754.03;5001827;28;20034;-80
2021/04/21 01:45:16;;;;;;;9.30;6.88;;;;;;;5.21;72.79;101756.50;5001889;28;20144;-80
2021/04/21 01:47:44;;;;;;;13.77;6.95;;;;;;;5.15;73.72;101757.56;5000242;28;20659;-80
2021/04/21 01:50:14;;;;;;;10.05;6.93;;;;;;;5.21;73.39;101765.09;5006808;28;20038;-79
2021/04/21 01:52:42;;;;;;;14.15;7.15;;;;;;;5.25;73.21;101766.63;4993866;28;20046;-79
2021/04/21 01:55:20;;;;;;;11.80;7.07;;;;;;;5.18;73.38;101761.78;4992442;28;20301;-80
2021/04/21 01:58:01;;;;;;;8.38;7.28;;;;;;;5.15;73.46;101760.16;5001116;28;20061;-80
2021/04/21 02:00:27;;;;;;;12.13;7.10;;;;;;;5.05;73.87;101764.88;4996551;28;20044;-79
2021/04/21 02:03:47;;;;;;;10.02;6.85;;;;;;;5.00;73.64;101753.84;4996396;28;20045;-80
2021/04/21 02:06:22;;;;;;;8.63;6.95;;;;;;;4.98;73.93;101758.25;4974347;28;20369;-81
2021/04/21 02:09:09;;;;;;;12.25;7.85;;;;;;;4.97;73.88;101766.06;4978280;28;20507;-80
2021/04/21 02:11:38;;;;;;;13.65;8.13;;;;;;;4.95;74.28;101760.94;4986325;28;20061;-80
2021/04/21 02:14:04;;;;;;;13.40;8.45;;;;;;;4.96;75.24;101764.38;4997735;28;20484;-80
2021/04/21 02:16:45;;;;;;;12.68;8.27;;;;;;;4.95;74.58;101766.13;4987720;28;20145;-80
2021/04/21 02:19:33;;;;;;;11.38;8.40;;;;;;;4.93;74.33;101762.75;4991811;28;20042;-80
2021/04/21 02:22:14;;;;;;;12.23;8.43;;;;;;;4.83;74.66;101757.09;5006384;28;20057;-80
2021/04/21 02:24:48;;;;;;;12.68;8.25;;;;;;;4.86;74.88;101766.50;4992189;28;20074;-80
2021/04/21 02:27:33;;;;;;;11.23;8.55;;;;;;;4.87;74.76;101769.91;4991418;28;20050;-80
2021/04/21 02:30:10;;;;;;;;;;;;;;;4.84;75.11;101763.94;4998077;28;20157;-80
2021/04/21 02:33:11;;;;;;;12.45;8.13;;;;;;;4.89;75.28;101762.94;4993891;28;19945;-80
2021/04/21 02:35:52;;;;;;;12.05;8.65;;;;;;;4.88;75.08;101769.84;4974768;28;20421;-80
2021/04/21 02:38:36;;;;;;;13.90;8.40;;;;;;;4.84;75.64;101765.69;4998043;28;20141;-80
2021/04/21 02:41:13;;;;;;;13.40;8.77;;;;;;;4.83;75.54;101764.00;4998912;28;20669;-80
2021/04/21 02:44:07;;;;;;;10.82;8.82;;;;;;;4.72;76.73;101748.13;5001083;28;20030;-80
2021/04/21 02:46:54;;;;;;;15.50;8.85;;;;;;;4.76;76.47;101760.84;4971714;28;20043;-80
2021/04/21 02:49:20;;;;;;;11.70;8.38;;;;;;;4.81;76.43;101771.81;4993844;28;20042;-80
2021/04/21 02:52:06;;;;;;;12.30;8.02;;;;;;;4.76;76.42;101766.00;4990464;28;20034;-80
2021/04/21 02:54:52;;;;;;;15.55;9.40;;;;;;;4.71;76.59;101773.09;4964015;28;20042;-80
2021/04/21 02:57:37;;;;;;;14.07;9.95;;;;;;;4.59;76.46;101752.06;5000170;28;20038;-80
2021/04/21 03:00:21;;;;;;;13.43;10.20;;;;;;;4.64;77.26;101760.44;4996357;28;20034;-79
2021/04/21 03:03:21;;;;;;;12.02;8.43;;;;;;;4.61;77.23;101761.41;4991056;28;20769;-79
2021/04/21 03:05:57;;;;;;;19.98;10.18;;;;;;;4.61;76.93;101763.16;4988954;28;20104;-79
2021/04/21 03:08:34;;;;;;;14.60;11.25;;;;;;;4.49;77.39;101749.84;4990000;28;20111;-79
2021/04/21 03:11:12;;;;;;;15.55;11.43;;;;;;;4.49;77.83;101746.44;4991694;28;20121;-79
2021/04/21 03:13:52;;;;;;;14.00;11.45;;;;;;;4.54;77.91;101747.09;4994025;28;20553;-79
2021/04/21 03:16:20;;;;;;;15.43;10.75;;;;;;;4.51;77.50;101747.19;4990082;28;20489;-79
2021/04/21 03:18:46;;;;;;;16.02;10.77;;;;;;;4.62;77.91;101760.50;4976671;28;20042;-79
2021/04/21 03:21:24;;;;;;;14.07;10.25;;;;;;;4.53;77.45;101756.56;4994548;28;20428;-79
2021/04/21 03:23:57;;;;;;;15.13;10.60;;;;;;;4.43;77.81;101756.94;4994357;28;20037;-79
2021/04/21 03:26:24;;;;;;;13.27;9.93;;;;;;;4.46;77.94;101759.41;4977485;28;20093;-79
2021/04/21 03:28:56;;;;;;;18.55;11.32;;;;;;;4.47;77.37;101754.19;4997151;28;20053;-79
2021/04/21 03:31:22;;;;;;;16.77;12.65;;;;;;;4.52;78.10;101765.19;4992333;28;20045;-80
2021/04/21 03:33:56;;;;;;;16.17;11.23;;;;;;;4.51;78.36;101755.78;4996900;28;20751;-79
2021/04/21 03:36:23;;;;;;;18.73;11.38;;;;;;;4.57;78.55;101764.19;4992787;28;20502;-79
2021/04/21 03:38:49;;;;;;;17.13;11.82;;;;;;;4.52;78.26;101741.97;4996069;28;20049;-79
2021/04/21 03:41:15;;;;;;;18.73;12.57;;;;;;;4.57;78.83;101746.97;4996051;28;20045;-79
2021/04/21 03:43:42;;;;;;;16.58;12.40;;;;;;;4.58;78.19;101753.78;5012208;28;20041;-79
2021/04/21 03:46:10;;;;;;;17.05;12.05;;;;;;;4.53;78.91;101748.81;4988107;28;20037;-79
2021/04/21 03:48:39;;;;;;;14.27;11.48;;;;;;;4.52;78.37;101746.31;4991937;28;20030;-79
2021/04/21 03:51:06;;;;;;;13.30;11.18;;;;;;;4.51;78.13;101748.03;5010673;28;20038;-79
2021/04/21 03:53:37;;;;;;;14.48;11.95;;;;;;;4.40;78.25;101732.13;4995873;28;20035;-79
2021/04/21 03:56:05;;;;;;;15.10;11.40;;;;;;;4.35;77.90;101735.78;4997492;28;20775;-79
2021/04/21 03:58:32;;;;;;;15.18;11.63;;;;;;;4.17;77.88;101702.03;4983175;28;20116;-79
2021/04/21 04:01:10;;;;;;;16.92;10.65;;;;;;;4.36;77.94;101745.19;4977956;28;20485;-79
2021/04/21 04:03:39;;;;;;;16.45;11.02;;;;;;;4.32;78.21;101741.91;4991837;28;20760;-79
2021/04/21 04:06:31;;;;;;;15.10;11.65;;;;;;;4.29;78.36;101743.72;4992198;28;20049;-79
2021/04/21 04:09:02;;;;;;;14.43;11.50;;;;;;;4.24;78.33;101746.47;4974177;28;20046;-79
2021/04/21 04:11:50;;;;;;;15.95;11.50;;;;;;;4.19;78.00;101746.66;4997089;28;20060;-79
2021/04/21 04:14:19;;;;;;;15.38;11.27;;;;;;;4.21;77.94;101736.28;4995123;28;20488;-79
2021/04/21 04:16:46;;;;;;;15.40;11.63;;;;;;;4.16;77.96;101738.19;4985698;28;20478;-79
2021/04/21 04:19:13;;;;;;;16.25;11.95;;;;;;;4.21;79.06;101751.75;4999666;28;20029;-80
2021/04/21 04:21:40;;;;;;;16.40;11.90;;;;;;;4.14;78.23;101745.16;5003902;28;20073;-79
2021/04/21 04:24:12;;;;;;;14.50;12.07;;;;;;;4.15;79.00;101746.81;4996621;28;20037;-80
2021/04/21 04:26:42;;;;;;;18.52;11.30;;;;;;;4.18;78.79;101754.44;4978576;28;20035;-79
2021/04/21 04:29:10;;;;;;;16.23;11.07;;;;;;;4.05;78.65;101756.63;4995115;28;20039;-79
2021/04/21 04:31:37;;;;;;;17.33;11.90;;;;;;;4.07;79.79;101756.56;4990738;28;20047;-80
2021/04/21 04:34:04;;;;;;;15.07;11.32;;;;;;;4.11;79.00;101763.28;4995207;28;20178;-79
2021/04/21 04:36:33;;;;;;;17.83;11.20;;;;;;;4.12;79.35;101760.66;4998963;28;20039;-77
2021/04/21 04:39:00;;;;;;;20.20;11.40;;;;;;;4.05;79.09;101759.19;4977914;28;20041;-77
2021/04/21 04:41:27;;;;;;;15.32;11.57;;;;;;;4.09;79.41;101758.19;5001668;28;20046;-77
2021/04/21 04:43:55;;;;;;;16.35;12.43;;;;;;;4.06;79.64;101760.03;5001857;28;20061;-77
2021/04/21 04:46:26;;;;;;;15.43;12.75;;;;;;;4.07;80.70;101757.41;4998854;28;20061;-77
2021/04/21 04:48:56;;;;;;;16.02;13.00;;;;;;;4.20;80.76;101765.53;5001271;28;20505;-77
2021/04/21 04:51:22;;;;;;;17.98;12.68;;;;;;;4.18;80.40;101757.88;4992916;28;20461;-77
2021/04/21 04:53:49;;;;;;;16.45;13.43;;;;;;;4.28;80.71;101762.66;5003515;28;20033;-77
2021/04/21 04:56:17;;;;;;;17.05;12.80;;;;;;;4.33;81.02;101771.09;5000164;28;20477;-78
2021/04/21 04:58:46;;;;;;;19.17;13.07;;;;;;;4.25;80.94;101750.72;4986638;28;20038;-78
2021/04/21 05:01:12;;;;;;;16.85;12.32;;;;;;;4.36;80.40;101763.25;4998108;28;20113;-78
2021/04/21 05:03:56;;;;;;;15.98;12.50;;;;;;;4.38;81.63;101770.03;4995534;28;20111;-79
2021/04/21 05:06:30;;;;;;;17.35;12.25;;;;;;;4.45;81.59;101773.22;4996296;28;20361;-79
2021/04/21 05:08:58;;;;;;;16.67;13.00;;;;;;;4.39;81.62;101776.88;4998158;28;20026;-79
2021/04/21 05:11:26;;;;;;;21.35;14.35;;;;;;;4.43;82.23;101777.59;5000453;28;20045;-79
2021/04/21 05:13:52;;;;;;;20.40;14.40;;;;;;;4.50;82.33;101786.78;4990894;28;20123;-78
2021/04/21 05:16:24;;;;;;;20.00;13.23;;;;;;;4.58;81.98;101792.50;4971553;28;20094;-79
2021/04/21 05:19:08;;;;;;;15.80;13.25;;;;;;;4.58;82.12;101800.22;5000202;28;20173;-79
2021/04/21 05:21:55;;;;;;;16.70;13.82;;;;;;;4.45;82.26;101773.22;4995335;28;20022;-79
2021/04/21 05:24:39;;;;;;;17.45;14.20;;;;;;;4.67;82.88;101807.63;5000058;28;20040;-79
2021/04/21 05:27:26;;;;;;;17.60;14.23;;;;;;;4.75;83.35;101802.19;4982207;28;20061;-78
2021/04/21 05:30:22;;;;;;;16.65;13.90;;;;;;;4.85;83.34;101806.09;5009812;28;20054;-78
2021/04/21 05:33:25;;;;;;;19.42;14.00;;;;;;;4.95;82.84;101812.56;4994678;28;20034;-78
2021/04/21 05:36:29;;;;;;;19.90;14.00;;;;;;;5.03;83.89;101812.28;5001956;28;20081;-78
2021/04/21 05:39:03;;;;;;;21.83;13.88;;;;;;;5.08;83.18;101812.94;4974074;28;20030;-78
2021/04/21 05:41:38;;;;;;;18.65;14.10;;;;;;;5.16;83.35;101814.31;4995814;28;20056;-78
2021/04/21 05:44:31;;;;;;;21.25;14.73;;;;;;;5.27;82.20;101815.66;4992091;28;20046;-78
2021/04/21 05:47:05;;;;;;;18.55;14.75;;;;;;;5.33;82.54;101818.81;4993320;28;20685;-78
2021/04/21 05:49:34;;;;;;;;;;;;;;;5.41;82.52;101809.03;4999810;28;20065;-77
2021/04/21 05:52:22;;;;;;;18.63;13.93;;;;;;;5.52;82.62;101816.31;4997355;28;20000;-77
2021/04/21 05:55:17;;;;;;;19.73;14.23;;;;;;;5.67;82.15;101820.03;4995962;28;20072;-77
2021/04/21 05:58:30;;;;;;;18.48;14.32;;;;;;;5.79;82.18;101808.34;4995836;28;20481;-77
2021/04/21 06:01:11;;;;;;;18.65;13.68;;;;;;;6.04;80.72;101814.16;4993550;28;20302;-78
2021/04/21 06:03:38;;;;;;;20.08;13.35;;;;;;;6.19;80.96;101810.09;4998087;28;20053;-77
2021/04/21 06:06:05;;;;;;;20.38;13.90;;;;;;;6.44;80.05;101815.00;4985529;28;20046;-78
2021/04/21 06:08:31;;;;;;;22.88;14.43;;;;;;;6.75;79.13;101822.22;5000952;28;20116;-78
2021/04/21 06:10:58;;;;;;;20.73;15.13;;;;;;;6.83;78.23;101815.78;4995819;28;20712;-79
2021/04/21 06:13:31;;;;;;;18.70;13.52;;;;;;;7.03;78.40;101821.78;4984170;28;20040;-78
2021/04/21 06:15:57;;;;;;;18.88;14.48;;;;;;;7.10;78.46;101815.41;4995290;28;20088;-78
2021/04/21 06:18:23;;;;;;;21.45;14.05;;;;;;;7.30;78.11;101822.22;4974201;28;20072;-78
2021/04/21 06:20:50;;;;;;;21.55;13.93;;;;;;;7.43;78.28;101826.75;4998016;28;20034;-77
2021/04/21 06:23:19;;;;;;;20.55;14.57;;;;;;;7.60;78.42;101830.25;4991078;28;20085;-78
2021/04/21 06:26:00;;;;;;;19.08;14.50;;;;;;;7.78;78.48;101829.34;4991672;28;20073;-78
2021/04/21 06:28:26;;;;;;;23.10;14.70;;;;;;;7.89;77.49;101825.28;4980945;28;20029;-77
2021/04/21 06:31:09;;;;;;;23.63;15.45;;;;;;;8.11;76.87;101840.59;4983267;28;20474;-78
2021/04/21 06:33:37;;;;;;;18.15;14.18;;;;;;;8.22;76.81;101841.78;4991924;28;20054;-78
2021/04/21 06:36:04;;;;;;;23.45;15.07;;;;;;;8.26;77.13;101840.72;4997581;28;20097;-77
2021/04/21 06:38:31;;;;;;;20.05;14.52;;;;;;;8.32;77.27;101846.44;4995682;28;20113;-77
2021/04/21 06:40:57;;;;;;;23.30;15.75;;;;;;;8.32;76.75;101835.22;4992376;28;20039;-77
2021/04/21 06:43:28;;;;;;;28.38;17.83;;;;;;;8.50;76.79;101844.66;4988782;28;20151;-78
2021/04/21 06:45:54;;;;;;;25.42;18.05;;;;;;;8.62;77.26;101853.56;4994398;28;20495;-77
2021/04/21 06:48:31;;;;;;;27.73;17.80;;;;;;;8.67;77.66;101851.56;4997697;28;20030;-77
2021/04/21 06:51:07;;;;;;;38.45;19.90;;;;;;;8.81;78.10;101856.03;4997196;28;20038;-77
2021/04/21 06:53:33;;;;;;;38.92;20.30;;;;;;;8.89;78.73;101862.47;4989884;28;21948;-77
2021/04/21 06:55:58;;;;;;;31.25;20.63;;;;;;;8.87;78.96;101859.13;4990987;28;20045;-78
2021/04/21 06:58:27;;;;;;;32.78;21.15;;;;;;;8.89;78.26;101851.25;4993218;28;20038;-77
2021/04/21 07:00:54;;;;;;;35.35;22.33;;;;;;;8.95;79.25;101867.31;4992300;28;20043;-78
2021/04/21 07:03:19;;;;;;;37.58;22.30;;;;;;;9.05;79.05;101863.31;4998304;28;20057;-77
2021/04/21 07:05:47;;;;;;;39.75;22.35;;;;;;;9.22;78.75;101869.34;4993643;28;20116;-77
2021/04/21 07:08:18;;;;;;;37.33;22.55;;;;;;;9.23;78.19;101865.81;4987979;28;20078;-78
2021/04/21 07:10:45;;;;;;;39.55;23.83;;;;;;;9.29;77.99;101868.06;4996184;28;20559;-77
2021/04/21 07:13:16;;;;;;;42.05;24.52;;;;;;;9.28;78.71;101875.03;4994258;28;20061;-78
2021/04/21 07:15:43;;;;;;;40.22;23.48;;;;;;;9.34;78.58;101879.91;5011611;28;20092;-78
2021/04/21 07:18:18;;;;;;;36.65;23.40;;;;;;;9.28;78.46;101881.97;4993164;28;20113;-77
2021/04/21 07:20:45;;;;;;;43.40;24.08;;;;;;;9.25;78.74;101876.97;4961487;28;20517;-80
2021/04/21 07:23:12;;;;;;;45.95;24.85;;;;;;;9.25;79.75;101885.59;4990195;28;20044;-77
2021/04/21 07:25:39;;;;;;;40.55;23.88;;;;;;;9.23;78.70;101878.81;4995729;28;20041;-79
2021/04/21 07:28:06;;;;;;;44.05;25.58;;;;;;;9.15;79.26;101888.78;4977062;28;20511;-78
2021/04/21 07:30:33;;;;;;;42.75;24.55;;;;;;;9.04;79.41;101887.63;4977713;28;20462;-77
2021/04/21 07:33:00;;;;;;;45.33;23.05;;;;;;;9.01;78.30;101890.38;4990654;28;20039;-77
2021/04/21 07:35:27;;;;;;;45.90;22.13;;;;;;;9.03;78.38;101901.53;4974425;28;20050;-77
2021/04/21 07:37:56;;;;;;;40.60;22.17;;;;;;;9.04;77.35;101902.38;4997701;28;20037;-76
2021/04/21 07:40:35;;;;;;;38.67;21.67;;;;;;;8.98;77.33;101915.69;4972539;28;20034;-77
2021/04/21 07:43:09;;;;;;;38.83;21.35;;;;;;;8.88;78.54;101901.50;4997492;28;20118;-77
2021/04/21 07:45:55;;;;;;;45.65;21.92;;;;;;;8.93;79.07;101921.13;4971278;28;20133;-78
2021/04/21 07:48:33;;;;;;;40.80;21.27;;;;;;;8.72;78.86;101924.88;4986892;28;20472;-77
2021/04/21 07:50:59;;;;;;;36.58;20.63;;;;;;;8.57;78.15;101926.50;4981231;28;20488;-77
2021/04/21 07:53:25;;;;;;;30.13;17.83;;;;;;;8.55;78.18;101930.09;5011652;28;20432;-79
2021/04/21 07:56:03;;;;;;;27.40;17.23;;;;;;;8.52;76.84;101933.69;4972078;28;20057;-76
2021/04/21 07:58:29;;;;;;;24.58;15.20;;;;;;;8.51;76.14;101921.63;4995572;28;20038;-79
2021/04/21 08:00:54;;;;;;;22.33;14.15;;;;;;;8.69;77.25;101945.81;4975982;28;20042;-77
2021/04/21 08:03:24;;;;;;;22.85;14.10;;;;;;;8.82;75.61;101914.84;4992918;28;20113;-79
2021/04/21 08:05:51;;;;;;;20.25;12.68;;;;;;;8.84;75.18;101933.78;4974719;28;20353;-79
2021/04/21 08:08:29;;;;;;;24.90;12.85;;;;;;;8.94;74.54;101932.34;4986619;28;20488;-79
2021/04/21 08:10:54;;;;;;;19.95;12.48;;;;;;;8.80;74.41;101894.16;4996877;28;20048;-80
2021/04/21 08:13:39;;;;;;;19.05;11.48;;;;;;;9.19;74.58;101934.50;4974504;28;20632;-79
2021/04/21 08:16:05;;;;;;;18.60;11.05;;;;;;;9.29;73.78;101944.28;5007900;28;20093;-78
2021/04/21 08:18:32;;;;;;;18.42;11.00;;;;;;;9.25;72.32;101952.34;4972077;28;20040;-78
2021/04/21 08:20:58;;;;;;;19.80;12.07;;;;;;;9.24;72.53;101948.06;4980370;28;20043;-79
2021/04/21 08:23:24;;;;;;;17.25;11.13;;;;;;;9.32;72.44;101951.06;4960385;28;20038;-76
2021/04/21 08:25:50;;;;;;;19.42;10.23;;;;;;;9.37;72.98;101949.06;4998996;28;20059;-80
2021/04/21 08:28:16;;;;;;;19.35;9.40;;;;;;;9.28;71.89;101937.41;4977369;28;20035;-79
2021/04/21 08:30:53;;;;;;;16.00;9.65;;;;;;;9.47;72.77;101952.00;5005808;28;20092;-79
2021/04/21 08:33:19;;;;;;;17.95;9.18;;;;;;;9.81;71.68;101954.38;4969518;28;20066;-79
2021/04/21 08:35:44;;;;;;;17.40;8.25;;;;;;;9.80;70.97;101923.25;5002274;28;20176;-79
2021/04/21 08:38:10;;;;;;;12.95;7.07;;;;;;;10.01;68.82;101955.84;4970363;28;20532;-79
2021/04/21 08:40:38;;;;;;;15.07;7.22;;;;;;;9.76;70.18;101961.63;4999745;28;20492;-77
2021/04/21 08:43:07;;;;;;;11.63;6.30;;;;;;;9.64;69.59;101960.53;4975476;28;20038;-76
2021/04/21 08:45:35;;;;;;;14.40;6.43;;;;;;;9.60;69.93;101959.03;5001059;28;20111;-76
2021/04/21 08:48:03;;;;;;;10.85;5.05;;;;;;;9.73;69.67;101961.81;4970405;28;20092;-78
2021/04/21 08:50:29;;;;;;;10.13;4.78;;;;;;;9.60;69.29;101942.59;5000119;28;20053;-80
2021/04/21 08:52:58;;;;;;;10.10;4.38;;;;;;;9.69;69.22;101963.75;4971799;28;20057;-79
2021/04/21 08:55:27;;;;;;;9.60;3.70;;;;;;;9.78;68.63;101958.94;4989289;28;20432;-78
2021/04/21 08:57:53;;;;;;;6.82;2.78;;;;;;;9.62;68.71;101967.59;4994556;28;20550;-78
2021/04/21 09:00:20;;;;;;;6.55;2.67;;;;;;;9.72;67.70;101972.28;4971772;28;20125;-78
2021/04/21 09:02:47;;;;;;;7.10;2.65;;;;;;;9.79;67.35;101982.25;4991156;28;20034;-78
2021/04/21 09:05:14;;;;;;;8.82;2.72;;;;;;;9.86;67.70;101983.56;4985582;28;20121;-78
2021/04/21 09:07:40;;;;;;;7.05;2.17;;;;;;;10.05;66.69;101987.75;4989706;28;20034;-78
2021/04/21 09:10:10;;;;;;;4.53;1.90;;;;;;;10.06;65.58;101979.88;4964345;28;20026;-78
2021/04/21 09:12:36;;;;;;;4.32;1.77;;;;;;;10.23;63.83;101989.31;4998571;28;20054;-78
2021/04/21 09:15:03;;;;;;;7.05;2.53;;;;;;;10.28;63.92;101980.34;4996277;28;20045;-78
2021/04/21 09:17:30;;;;;;;7.68;2.00;;;;;;;10.39;62.83;101966.66;4977925;28;20034;-78
2021/04/21 09:19:57;;;;;;;4.25;1.85;;;;;;;10.89;61.62;101996.69;4980197;28;20052;-78
2021/04/21 09:22:25;;;;;;;4.85;1.60;;;;;;;10.64;59.58;101980.84;4979708;28;20026;-78
2021/04/21 09:25:00;;;;;;;9.82;2.15;;;;;;;10.52;61.46;101987.63;4989313;28;20129;-78
2021/04/21 09:27:34;;;;;;;5.18;1.67;;;;;;;10.50;62.76;101998.13;4974365;28;20051;-78
2021/04/21 09:30:19;;;;;;;5.38;1.50;;;;;;;10.49;61.83;102000.84;4991097;28;20054;-78
2021/04/21 09:32:54;;;;;;;3.75;1.60;;;;;;;10.79;60.24;102004.22;4993327;28;20137;-78
2021/04/21 09:35:21;;;;;;;6.75;1.83;;;;;;;10.94;59.24;102004.22;4965055;28;20058;-79
2021/04/21 09:37:47;;;;;;;3.17;1.30;;;;;;;11.09;58.17;102000.69;4982733;28;20029;-78
2021/04/21 09:40:13;;;;;;;5.80;1.58;;;;;;;11.11;58.95;101996.22;4988391;28;20310;-76
2021/04/21 09:42:39;;;;;;;4.72;1.40;;;;;;;10.92;56.65;102013.91;4970684;28;20034;-77
2021/04/21 09:45:06;;;;;;;8.43;1.27;;;;;;;11.12;56.38;101997.88;4995008;28;20530;-78
2021/04/21 09:47:33;;;;;;;29.75;14.05;;;;;;;11.02;55.91;102004.59;4972327;28;20166;-79
2021/04/21 09:49:59;;;;;;;10.82;1.67;;;;;;;10.82;55.19;102018.84;4984506;28;20506;-78
2021/04/21 09:52:24;;;;;;;6.35;1.10;;;;;;;10.83;55.69;102016.16;4976238;28;20049;-78
2021/04/21 09:54:51;;;;;;;6.43;1.70;;;;;;;11.02;55.06;101996.78;4985141;28;20275;-78
2021/04/21 09:57:18;;;;;;;7.35;1.50;;;;;;;11.15;55.17;102008.97;4971009;28;20060;-79
2021/04/21 09:59:57;;;;;;;5.40;1.17;;;;;;;11.27;50.91;102012.59;4997374;28;20052;-78
2021/04/21 10:02:36;;;;;;;8.45;1.55;;;;;;;11.55;52.67;102010.88;4977759;28;20080;-79
2021/04/21 10:05:21;;;;;;;14.20;2.63;;;;;;;11.86;51.06;102015.84;4984678;28;20787;-78
2021/04/21 10:07:47;;;;;;;5.00;0.90;;;;;;;11.92;49.88;102006.78;4973960;28;21035;-78
2021/04/21 10:10:12;;;;;;;8.20;1.75;;;;;;;12.34;49.50;102005.75;4977253;28;20058;-78
2021/04/21 10:12:39;;;;;;;6.05;1.42;;;;;;;12.71;49.59;102015.38;4958347;28;20076;-78
2021/04/21 10:15:10;;;;;;;11.70;1.50;;;;;;;12.49;48.68;102009.94;4988687;28;20456;-76
2021/04/21 10:17:40;;;;;;;8.65;1.90;;;;;;;12.33;51.27;102017.97;4955854;28;20040;-76
2021/04/21 10:20:11;;;;;;;8.80;1.48;;;;;;;12.27;48.99;102021.00;4984449;28;20184;-75
2021/04/21 10:22:37;;;;;;;7.20;1.08;;;;;;;12.24;48.28;102007.31;4963899;28;20032;-77
2021/04/21 10:25:05;;;;;;;9.30;1.30;;;;;;;12.18;49.23;102015.53;4991209;28;20448;-76
2021/04/21 10:27:31;;;;;;;8.00;1.70;;;;;;;12.57;48.97;102010.28;4962833;28;20039;-77
2021/04/21 10:29:58;;;;;;;6.38;1.63;;;;;;;12.34;49.89;102013.56;5010775;28;20038;-78
2021/04/21 10:32:24;;;;;;;9.55;1.52;;;;;;;12.19;51.17;102011.97;4996220;28;20042;-76
2021/04/21 10:34:50;;;;;;;10.20;1.75;;;;;;;12.25;50.72;102019.41;4963677;28;20093;-77
2021/04/21 10:37:17;;;;;;;7.10;1.30;;;;;;;12.00;50.62;102000.13;4977993;28;20081;-76
2021/04/21 10:39:45;;;;;;;9.27;1.63;;;;;;;12.64;50.20;102001.06;4963350;28;20157;-77
2021/04/21 10:42:15;;;;;;;7.53;1.38;;;;;;;12.77;49.29;102018.53;4992257;28;20025;-77
2021/04/21 10:44:44;;;;;;;11.60;1.85;;;;;;;12.40;49.92;102027.09;4971152;28;20452;-77
2021/04/21 10:47:15;;;;;;;9.90;1.70;;;;;;;12.48;50.26;102029.16;4993632;28;20048;-76
2021/04/21 10:50:04;;;;;;;12.75;1.95;;;;;;;12.77;50.28;102027.22;4968976;28;20503;-77
2021/04/21 10:52:29;;;;;;;9.85;1.15;;;;;;;12.41;48.93;102025.31;4987759;28;20081;-76
2021/04/21 10:54:59;;;;;;;7.68;1.33;;;;;;;12.13;49.51;102030.66;4991811;28;20861;-76
2021/04/21 10:57:26;;;;;;;11.43;1.63;;;;;;;11.75;50.04;102028.72;4991210;28;20495;-77
2021/04/21 11:00:17;;;;;;;9.48;1.45;;;;;;;11.66;51.65;102030.13;4996940;28;20038;-77
2021/04/21 11:02:55;;;;;;;12.45;1.83;;;;;;;11.40;54.07;102039.59;4977191;28;20042;-77
2021/04/21 11:05:28;;;;;;;13.50;2.50;;;;;;;11.31;54.61;102045.38;4969252;28;20046;-78
2021/04/21 11:08:05;;;;;;;17.90;2.08;;;;;;;11.22;56.66;102051.16;4990333;28;20033;-76
2021/04/21 11:10:40;;;;;;;13.85;2.03;;;;;;;11.10;56.42;102024.03;4995724;28;20041;-77
2021/04/21 11:13:08;;;;;;;11.02;2.30;;;;;;;11.36;54.86;102052.91;4961504;28;20120;-77
2021/04/21 11:15:38;;;;;;;9.43;2.15;;;;;;;11.44;55.32;102050.66;4997730;28;20428;-78
2021/04/21 11:18:13;;;;;;;14.38;2.20;;;;;;;11.93;55.11;102050.22;4994132;28;20082;-78
2021/04/21 11:20:47;;;;;;;15.35;2.53;;;;;;;12.19;53.37;102045.91;4996668;28;20037;-78
2021/04/21 11:23:52;;;;;;;11.95;2.90;;;;;;;12.63;52.61;102045.59;4993729;28;20026;-78
2021/04/21 11:26:27;;;;;;;13.52;2.13;;;;;;;12.55;51.87;102050.50;4998618;28;20491;-78
2021/04/21 11:29:10;;;;;;;11.63;2.13;;;;;;;12.40;51.02;102044.53;4976056;28;20042;-78
2021/04/21 11:31:41;;;;;;;15.98;3.17;;;;;;;13.17;48.25;102048.84;4994905;28;20481;-77
2021/04/21 11:34:22;;;;;;;9.20;2.45;;;;;;;13.59;47.44;102055.50;5002503;28;20092;-79
2021/04/21 11:36:59;;;;;;;11.88;2.53;;;;;;;14.15;46.13;102049.72;4995904;28;20492;-77
2021/04/21 11:39:43;;;;;;;12.98;2.05;;;;;;;13.51;45.65;102046.53;4999656;28;20044;-78
2021/04/21 11:42:32;;;;;;;17.33;2.72;;;;;;;12.97;45.27;102041.53;4996059;28;20419;-78
2021/04/21 11:45:23;;;;;;;11.38;2.53;;;;;;;13.09;45.90;102050.31;4997527;28;20042;-78
2021/04/21 11:48:03;;;;;;;10.57;1.90;;;;;;;14.06;42.92;102034.69;4999110;28;20053;-78